Time;durP1;ratioP1;P1;durP2;ratioP2;P2;SDS_P1;SDS_P2;PMS_P1;PMS_P2;Temp;Humidity;BMP_temperature;BMP_pressure;BME280_temperature;BME280_humidity;BME280_pressure;Samples;Min_cycle;Max_cycle;Signal;HPM_P1;HPM_P2
2023/03/25 00:00:38;;;;;;;8.07;4.47;;;13.90;93.30;;;;;;5043983;28;20048;-80
2023/03/25 00:03:08;;;;;;;7.65;4.80;;;13.80;93.50;;;;;;5060601;28;20047;-80
2023/03/25 00:05:39;;;;;;;9.35;5.50;;;13.80;93.50;;;;;;5050579;28;20144;-80
2023/03/25 00:08:06;;;;;;;9.77;4.78;;;13.50;93.30;;;;;;5049755;28;20048;-80
2023/03/25 00:10:34;;;;;;;11.05;5.50;;;13.90;93.30;;;;;;5060361;28;20048;-80
2023/03/25 00:13:04;;;;;;;9.15;4.65;;;14.70;93.50;;;;;;5050923;28;20044;-80
2023/03/25 00:15:32;;;;;;;6.97;4.35;;;13.80;93.20;;;;;;5041231;28;20045;-80
2023/03/25 00:18:00;;;;;;;36.05;7.32;;;13.90;93.40;;;;;;5062043;28;22879;-80
2023/03/25 00:20:28;;;;;;;11.38;5.78;;;13.80;93.40;;;;;;5046384;28;20070;-80
2023/03/25 00:22:56;;;;;;;8.30;4.90;;;13.80;93.50;;;;;;5061696;28;20032;-80
2023/03/25 00:25:26;;;;;;;10.80;5.22;;;13.90;93.60;;;;;;5070033;28;20070;-80
2023/03/25 00:27:53;;;;;;;8.02;4.22;;;13.90;93.70;;;;;;5042676;28;20072;-80
2023/03/25 00:30:21;;;;;;;10.90;5.40;;;13.80;93.80;;;;;;5041509;28;20123;-80
2023/03/25 00:32:51;;;;;;;13.60;5.88;;;13.80;93.80;;;;;;5051014;28;20946;-80
2023/03/25 00:35:20;;;;;;;10.98;5.03;;;13.10;93.50;;;;;;5065033;28;22649;-80
2023/03/25 00:37:59;;;;;;;9.73;5.22;;;13.90;93.80;;;;;;5050474;28;20051;-80
2023/03/25 00:40:29;;;;;;;11.15;5.65;;;13.80;93.70;;;;;;5062333;28;20051;-80
2023/03/25 00:42:56;;;;;;;8.80;4.57;;;13.90;93.80;;;;;;5048473;28;20099;-80
2023/03/25 00:45:24;;;;;;;12.55;4.10;;;13.80;94.00;;;;;;5062394;28;20044;-80
2023/03/25 00:47:51;;;;;;;13.25;4.78;;;13.80;94.10;;;;;;5055211;28;20147;-80
2023/03/25 00:50:20;;;;;;;9.40;4.65;;;13.80;94.00;;;;;;5052934;28;20135;-80
2023/03/25 00:52:48;;;;;;;10.60;4.43;;;13.40;94.00;;;;;;5045223;28;20083;-80
2023/03/25 00:55:17;;;;;;;10.32;4.40;;;13.90;94.10;;;;;;5066839;28;20048;-80
2023/03/25 00:57:45;;;;;;;9.98;3.90;;;13.80;94.40;;;;;;5049091;28;21038;-80
2023/03/25 01:00:16;;;;;;;5.22;3.08;;;13.80;94.70;;;;;;5060659;28;20504;-80
2023/03/25 01:02:44;;;;;;;7.78;3.70;;;13.40;94.50;;;;;;5046390;28;20117;-79
2023/03/25 01:05:12;;;;;;;3.88;1.30;;;13.80;94.50;;;;;;5047654;28;20412;-79
2023/03/25 01:07:42;;;;;;;6.63;1.27;;;14.20;93.80;;;;;;5043906;28;20135;-79
2023/03/25 01:10:10;;;;;;;8.73;2.75;;;13.90;93.10;;;;;;5077501;28;20521;-79
2023/03/25 01:12:37;;;;;;;7.32;1.90;;;13.90;92.90;;;;;;5041365;28;20053;-80
2023/03/25 01:15:05;;;;;;;3.30;0.93;;;14.00;92.40;;;;;;5054051;28;20049;-78
2023/03/25 01:17:33;;;;;;;2.40;0.40;;;14.10;91.50;;;;;;5053914;28;22730;-79
2023/03/25 01:20:04;;;;;;;2.42;0.20;;;14.20;91.10;;;;;;5042264;28;20103;-78
2023/03/25 01:22:32;;;;;;;0.88;0.13;;;14.50;90.90;;;;;;5057722;28;20051;-78
2023/03/25 01:24:59;;;;;;;0.40;0.20;;;14.50;90.60;;;;;;5058036;28;20908;-80
2023/03/25 01:27:29;;;;;;;1.63;0.20;;;14.80;90.90;;;;;;5049430;28;20048;-78
2023/03/25 01:29:57;;;;;;;4.93;0.75;;;14.80;90.90;;;;;;5062294;28;20207;-81
2023/03/25 01:32:24;;;;;;;2.33;0.30;;;15.10;90.80;;;;;;5044133;28;21626;-79
2023/03/25 01:35:12;;;;;;;4.18;0.25;;;15.00;90.90;;;;;;5040866;28;20097;-77
2023/03/25 01:37:43;;;;;;;2.65;0.30;;;15.30;91.00;;;;;;4995230;28;20480;-76
2023/03/25 01:40:18;;;;;;;2.53;0.43;;;15.10;91.20;;;;;;5014338;28;20501;-80
2023/03/25 01:42:46;;;;;;;0.90;0.30;;;15.10;91.50;;;;;;5011996;28;20136;-79
2023/03/25 01:45:20;;;;;;;3.45;0.50;;;15.10;91.80;;;;;;5008353;28;20046;-80
2023/03/25 01:48:01;;;;;;;2.03;0.68;;;15.00;92.10;;;;;;5005827;28;20081;-81
2023/03/25 01:50:31;;;;;;;1.38;0.60;;;14.90;92.40;;;;;;5002618;28;20072;-79
2023/03/25 01:53:02;;;;;;;1.05;0.30;;;14.90;92.80;;;;;;5010609;28;20509;-81
2023/03/25 01:55:33;;;;;;;1.48;0.65;;;14.90;93.20;;;;;;4990009;28;20443;-80
2023/03/25 01:58:09;;;;;;;1.20;0.73;;;14.80;93.50;;;;;;5001175;28;20060;-80
2023/03/25 02:00:39;;;;;;;2.63;0.40;;;14.70;93.70;;;;;;5005152;28;20334;-79
2023/03/25 02:03:08;;;;;;;1.45;0.70;;;14.20;93.60;;;;;;5005334;28;20551;-80
2023/03/25 02:05:47;;;;;;;3.25;0.60;;;14.80;94.10;;;;;;4984309;28;20049;-79
2023/03/25 02:08:19;;;;;;;2.10;0.70;;;14.70;94.70;;;;;;5004254;28;20056;-79
2023/03/25 02:10:48;;;;;;;2.63;0.88;;;14.80;95.50;;;;;;5038894;28;20044;-79
2023/03/25 02:13:16;;;;;;;2.42;1.08;;;14.60;96.40;;;;;;5066323;28;20067;-79
2023/03/25 02:16:07;;;;;;;2.67;0.80;;;14.60;96.80;;;;;;5053527;28;20044;-79
2023/03/25 02:18:55;;;;;;;2.03;0.80;;;14.50;97.10;;;;;;5045574;28;20055;-79
2023/03/25 02:21:48;;;;;;;1.58;0.80;;;14.40;97.70;;;;;;5049439;28;20068;-80
2023/03/25 02:24:53;;;;;;;2.00;0.82;;;14.40;98.10;;;;;;5049884;28;20048;-80
2023/03/25 02:27:44;;;;;;;2.15;1.08;;;14.30;98.50;;;;;;5047917;28;20061;-79
2023/03/25 02:30:44;;;;;;;2.63;1.27;;;13.90;98.70;;;;;;5038962;28;20507;-80
2023/03/25 02:33:41;;;;;;;2.58;1.00;;;14.30;99.40;;;;;;5047163;28;20045;-79
2023/03/25 02:36:40;;;;;;;2.00;1.00;;;14.20;99.90;;;;;;5039483;28;22773;-78
2023/03/25 02:39:17;;;;;;;3.08;1.20;;;14.10;99.90;;;;;;5050297;28;20056;-80
2023/03/25 02:42:29;;;;;;;2.33;0.95;;;14.00;99.90;;;;;;5052368;28;20182;-79
2023/03/25 02:45:02;;;;;;;3.78;1.42;;;13.70;99.90;;;;;;5045176;28;20040;-77
2023/03/25 02:47:33;;;;;;;;;;;13.90;99.90;;;;;;5049640;28;20487;-79
2023/03/25 02:50:16;;;;;;;2.08;1.10;;;13.80;99.90;;;;;;5044796;28;22512;-79
2023/03/25 02:52:49;;;;;;;2.58;1.10;;;13.90;99.90;;;;;;5069603;28;20044;-80
2023/03/25 02:55:21;;;;;;;2.10;0.90;;;13.80;99.90;;;;;;5045453;28;20116;-79
2023/03/25 02:57:51;;;;;;;2.25;1.08;;;13.50;99.90;;;;;;5046694;28;20369;-80
2023/03/25 03:00:27;;;;;;;1.90;0.82;;;13.70;99.90;;;;;;5040709;28;20045;-80
2023/03/25 03:03:03;;;;;;;4.05;1.13;;;13.60;99.90;;;;;;5052387;28;22733;-80
2023/03/25 03:05:41;;;;;;;2.40;1.52;;;13.50;99.90;;;;;;5051917;28;20617;-79
2023/03/25 03:08:31;;;;;;;3.33;1.45;;;13.60;99.90;;;;;;5065152;28;20568;-79
2023/03/25 03:11:06;;;;;;;2.58;1.08;;;13.50;99.90;;;;;;5046309;28;20495;-80
2023/03/25 03:14:04;;;;;;;3.20;1.40;;;13.50;99.90;;;;;;5056280;28;20056;-79
2023/03/25 03:16:45;;;;;;;2.78;1.27;;;13.50;99.90;;;;;;5054071;28;20090;-78
2023/03/25 03:19:39;;;;;;;3.00;1.25;;;13.50;99.90;;;;;;5070033;28;20495;-79
2023/03/25 03:22:35;;;;;;;3.03;1.73;;;13.50;99.90;;;;;;5066585;28;20068;-79
2023/03/25 03:25:31;;;;;;;2.83;1.70;;;13.60;99.90;;;;;;5043074;28;20057;-80
2023/03/25 03:28:08;;;;;;;4.55;1.77;;;13.40;99.90;;;;;;5076626;28;20048;-79
2023/03/25 03:30:50;;;;;;;4.57;1.35;;;13.50;99.90;;;;;;5062046;28;20139;-79
2023/03/25 03:33:32;;;;;;;2.17;1.00;;;13.40;99.90;;;;;;5076698;28;20056;-80
2023/03/25 03:36:07;;;;;;;1.98;0.90;;;13.40;99.90;;;;;;5054814;28;20174;-79
2023/03/25 03:38:45;;;;;;;1.75;0.68;;;13.40;99.90;;;;;;5062313;28;21745;-80
2023/03/25 03:41:18;;;;;;;2.63;0.77;;;13.40;99.90;;;;;;5046506;28;20046;-79
2023/03/25 03:44:03;;;;;;;1.70;0.65;;;13.40;99.90;;;;;;5064517;28;20054;-78
2023/03/25 03:46:44;;;;;;;1.25;0.57;;;13.90;99.90;;;;;;5049381;28;20052;-80
2023/03/25 03:49:17;;;;;;;2.53;0.60;;;13.30;99.90;;;;;;5062652;28;20044;-79
2023/03/25 03:52:07;;;;;;;1.42;0.65;;;13.30;99.90;;;;;;5043614;28;20525;-80
2023/03/25 03:54:46;;;;;;;2.17;0.55;;;13.10;99.90;;;;;;5071432;28;20076;-79
2023/03/25 03:57:37;;;;;;;1.00;0.35;;;13.30;99.90;;;;;;5045753;28;20047;-79
2023/03/25 04:00:08;;;;;;;2.08;0.85;;;13.10;99.90;;;;;;5049833;28;20048;-79
2023/03/25 04:02:38;;;;;;;1.35;0.70;;;12.90;99.90;;;;;;5044067;28;20052;-79
2023/03/25 04:05:11;;;;;;;1.38;0.50;;;12.70;99.90;;;;;;5070864;28;20052;-79
2023/03/25 04:08:10;;;;;;;1.33;0.43;;;13.10;99.90;;;;;;5066403;28;20045;-80
2023/03/25 04:11:03;;;;;;;2.28;0.65;;;12.80;99.90;;;;;;5051601;28;20070;-80
2023/03/25 04:13:35;;;;;;;2.33;0.55;;;12.70;99.90;;;;;;5055765;28;20076;-81
2023/03/25 04:16:06;;;;;;;3.08;0.70;;;12.50;99.90;;;;;;5068633;28;20048;-81
2023/03/25 04:18:33;;;;;;;2.38;0.65;;;12.40;99.90;;;;;;5067131;28;20048;-82
2023/03/25 04:21:00;;;;;;;1.50;0.50;;;12.40;99.90;;;;;;5053982;28;20052;-80
2023/03/25 04:23:32;;;;;;;1.15;0.50;;;12.70;99.90;;;;;;5065332;23;20045;-89
2023/03/25 04:26:01;;;;;;;2.55;0.80;;;12.50;99.90;;;;;;5039515;28;20046;-89
2023/03/25 04:28:30;;;;;;;1.33;0.60;;;12.40;99.90;;;;;;4998524;28;20425;-88
2023/03/25 04:30:59;;;;;;;1.70;0.40;;;12.30;99.90;;;;;;5024243;28;20057;-90
2023/03/25 04:33:30;;;;;;;1.30;0.50;;;12.40;99.90;;;;;;5038600;28;20125;-89
2023/03/25 04:36:00;;;;;;;2.65;0.70;;;12.40;99.90;;;;;;5043412;28;20535;-88
2023/03/25 04:38:28;;;;;;;3.30;0.98;;;12.30;99.90;;;;;;5028824;28;20053;-88
2023/03/25 04:40:57;;;;;;;2.75;0.80;;;12.20;99.90;;;;;;5046695;28;20037;-88
2023/03/25 04:43:25;;;;;;;3.10;0.90;;;12.20;99.90;;;;;;5029490;28;20053;-89
2023/03/25 04:45:52;;;;;;;3.53;0.80;;;12.20;99.90;;;;;;5029239;28;20057;-88
2023/03/25 04:48:30;;;;;;;2.83;0.60;;;12.30;99.90;;;;;;5023533;28;20072;-89
2023/03/25 04:50:59;;;;;;;2.17;0.90;;;12.40;99.90;;;;;;5038484;28;20053;-88
2023/03/25 04:53:27;;;;;;;3.17;0.90;;;12.40;99.90;;;;;;5013947;28;20054;-89
2023/03/25 04:55:55;;;;;;;3.10;0.90;;;12.50;99.90;;;;;;5022848;28;20052;-89
2023/03/25 04:58:22;;;;;;;2.90;1.10;;;12.40;99.90;;;;;;5006919;28;20050;-88
2023/03/25 05:00:51;;;;;;;3.72;1.50;;;12.40;99.90;;;;;;5017825;28;20049;-89
2023/03/25 05:03:28;;;;;;;3.28;1.48;;;12.50;99.90;;;;;;5041549;28;20076;-90
2023/03/25 05:06:08;;;;;;;3.35;1.50;;;12.40;99.90;;;;;;5016759;28;20049;-90
2023/03/25 05:09:03;;;;;;;4.25;1.83;;;12.90;99.90;;;;;;5018254;28;20115;-89
2023/03/25 05:11:45;;;;;;;4.88;1.50;;;12.50;99.90;;;;;;4983370;28;20081;-89
2023/03/25 05:14:15;;;;;;;5.60;2.85;;;12.40;99.90;;;;;;4981273;28;20103;-90
2023/03/25 05:16:47;;;;;;;4.95;2.38;;;12.30;99.90;;;;;;4979872;28;20050;-88
2023/03/25 05:19:18;;;;;;;5.60;2.42;;;12.40;99.90;;;;;;4977905;28;20060;-89
2023/03/25 05:21:47;;;;;;;7.60;2.17;;;12.40;99.90;;;;;;4965788;28;20491;-88
2023/03/25 05:24:20;;;;;;;4.57;2.17;;;12.40;99.90;;;;;;4999140;28;20137;-89
2023/03/25 05:26:53;;;;;;;5.90;2.60;;;12.40;99.90;;;;;;5000460;28;20042;-89
2023/03/25 05:29:23;;;;;;;4.80;2.13;;;12.40;99.90;;;;;;4976870;28;20069;-87
2023/03/25 05:31:51;;;;;;;5.85;2.33;;;12.40;99.90;;;;;;4998596;28;20201;-90
2023/03/25 05:34:31;;;;;;;4.20;2.20;;;12.20;99.90;;;;;;4980678;28;20347;-89
2023/03/25 05:37:02;;;;;;;4.13;2.10;;;12.30;99.90;;;;;;5007230;28;20045;-89
2023/03/25 05:43:05;;;;;;;5.72;2.20;;;12.40;99.90;;;;;;5036680;28;20140;-90
2023/03/25 05:45:57;;;;;;;7.95;2.40;;;12.30;99.90;;;;;;5026814;28;20660;-89
2023/03/25 05:48:26;;;;;;;6.78;2.75;;;11.30;99.90;;;;;;5010415;28;20049;-91
2023/03/25 05:51:08;;;;;;;4.78;2.50;;;12.40;99.90;;;;;;5019857;28;20636;-88
2023/03/25 05:53:43;;;;;;;4.43;2.30;;;13.40;99.90;;;;;;5014116;28;20041;-90
2023/03/25 05:56:25;;;;;;;4.43;2.30;;;12.40;99.90;;;;;;4993825;28;22795;-89
2023/03/25 05:59:03;;;;;;;5.43;3.00;;;12.40;99.90;;;;;;4998380;28;20045;-89
2023/03/25 06:01:36;;;;;;;4.03;2.15;;;12.30;99.90;;;;;;4994222;28;20045;-90
2023/03/25 06:04:15;;;;;;;3.47;2.00;;;12.40;99.90;;;;;;4984970;28;20187;-90
2023/03/25 06:06:46;;;;;;;4.35;2.63;;;12.50;99.90;;;;;;5001877;28;20100;-89
2023/03/25 06:09:19;;;;;;;11.35;6.05;;;12.30;99.90;;;;;;4995987;28;20105;-89
2023/03/25 06:11:54;;;;;;;6.63;3.00;;;12.40;99.90;;;;;;4997488;28;20057;-89
2023/03/25 06:14:24;;;;;;;6.25;3.40;;;12.40;99.90;;;;;;4999143;28;20175;-89
2023/03/25 06:16:55;;;;;;;8.40;3.95;;;12.40;99.90;;;;;;5003097;28;20054;-89
2023/03/25 06:19:41;;;;;;;5.45;3.05;;;12.40;99.90;;;;;;4997983;28;20041;-89
2023/03/25 06:51:30;;;;;;;4.40;2.70;;;12.40;99.90;;;;;;4941867;28;20052;-80
2023/03/25 06:54:03;;;;;;;2.03;0.68;;;12.50;99.90;;;;;;4928329;29;20055;-81
2023/03/25 06:56:33;;;;;;;5.45;1.23;;;12.30;99.90;;;;;;4915348;29;22796;-81
2023/03/25 06:59:00;;;;;;;4.95;2.03;;;12.30;99.90;;;;;;4909886;29;20080;-81
2023/03/25 07:01:28;;;;;;;3.13;1.48;;;12.20;99.90;;;;;;4932475;29;20067;-81
2023/03/25 07:03:55;;;;;;;1.73;0.70;;;12.50;99.90;;;;;;4926674;29;20392;-81
2023/03/25 07:06:33;;;;;;;3.83;0.60;;;12.40;99.90;;;;;;5638507;23;20018;31
2023/03/25 07:09:01;;;;;;;1.90;0.50;;;12.40;99.90;;;;;;4953229;29;21067;-81
2023/03/25 07:11:29;;;;;;;3.90;1.30;;;12.60;99.90;;;;;;4970931;28;20062;-82
2023/03/25 07:13:57;;;;;;;4.40;0.55;;;12.60;99.90;;;;;;4931221;29;20139;-82
2023/03/25 07:16:27;;;;;;;2.83;0.82;;;12.60;99.90;;;;;;4959262;28;20058;-80
2023/03/25 07:19:19;;;;;;;1.73;0.50;;;12.70;99.90;;;;;;4888877;29;20056;-82
2023/03/25 07:21:46;;;;;;;3.10;0.40;;;12.60;99.90;;;;;;4933389;29;20094;-80
2023/03/25 07:24:13;;;;;;;1.98;0.57;;;12.70;99.90;;;;;;4902134;29;20059;-80
2023/03/25 07:26:41;;;;;;;1.85;0.50;;;12.80;99.90;;;;;;4919051;29;20044;-80
2023/03/25 07:29:12;;;;;;;1.80;0.43;;;12.80;99.90;;;;;;4929745;29;20052;-81
2023/03/25 07:31:40;;;;;;;1.83;0.40;;;12.90;99.90;;;;;;4911084;29;20058;-82
2023/03/25 07:34:07;;;;;;;1.65;0.43;;;13.00;99.90;;;;;;4901308;29;20064;-80
2023/03/25 07:36:35;;;;;;;4.55;0.70;;;13.00;99.90;;;;;;4926255;29;20047;-81
2023/03/25 07:39:06;;;;;;;1.38;0.50;;;13.10;99.90;;;;;;4916748;29;20060;-80
2023/03/25 07:41:34;;;;;;;3.47;0.70;;;13.10;99.90;;;;;;4929633;29;20080;-82
2023/03/25 07:44:27;;;;;;;2.03;0.80;;;13.20;99.90;;;;;;4946356;28;20537;-82
2023/03/25 07:46:54;;;;;;;4.60;0.90;;;13.20;99.90;;;;;;4931258;29;20052;-81
2023/03/25 07:49:23;;;;;;;2.28;0.70;;;13.20;99.90;;;;;;4950468;29;20074;-80
2023/03/25 07:51:51;;;;;;;3.50;1.50;;;13.40;99.90;;;;;;4965847;28;20047;-82
2023/03/25 07:54:21;;;;;;;3.55;1.05;;;13.10;99.90;;;;;;4949126;28;20059;-81
2023/03/25 07:56:48;;;;;;;2.28;0.93;;;13.20;99.90;;;;;;4954993;28;20063;-82
2023/03/25 07:59:15;;;;;;;3.38;0.90;;;13.20;99.90;;;;;;4949079;28;20051;-81
2023/03/25 08:01:43;;;;;;;2.33;1.20;;;13.10;99.90;;;;;;4961636;28;20138;-80
2023/03/25 08:04:12;;;;;;;2.47;1.10;;;13.10;99.90;;;;;;4931800;28;20102;-79
2023/03/25 08:06:40;;;;;;;2.95;1.00;;;13.20;99.90;;;;;;4957502;28;20047;-79
2023/03/25 08:09:07;;;;;;;2.03;0.77;;;13.20;99.90;;;;;;4938701;28;20132;-79
2023/03/25 08:11:35;;;;;;;2.88;1.15;;;13.50;99.90;;;;;;4951177;28;20059;-79
2023/03/25 08:14:02;;;;;;;2.20;0.80;;;14.30;99.90;;;;;;4931696;28;20057;-79
2023/03/25 08:16:30;;;;;;;5.63;1.80;;;13.90;99.90;;;;;;4953392;28;20051;-81
2023/03/25 08:18:58;;;;;;;2.75;1.10;;;13.90;99.90;;;;;;4950963;28;20047;-79
2023/03/25 08:21:26;;;;;;;5.25;2.40;;;14.20;99.90;;;;;;4937095;28;20043;-80
2023/03/25 08:23:57;;;;;;;2.95;1.45;;;14.40;99.90;;;;;;4951540;28;20051;-79
2023/03/25 08:26:25;;;;;;;2.65;0.98;;;14.70;99.90;;;;;;4970688;28;20050;-79
2023/03/25 08:28:56;;;;;;;2.92;1.05;;;14.80;99.90;;;;;;4958393;28;20074;-79
2023/03/25 08:31:25;;;;;;;3.05;1.20;;;15.00;99.90;;;;;;4963357;28;20557;-79
2023/03/25 08:33:52;;;;;;;1.70;0.80;;;14.90;98.50;;;;;;4952562;28;23779;-78
2023/03/25 08:36:21;;;;;;;2.40;0.70;;;15.00;97.10;;;;;;4963321;28;20106;-80
2023/03/25 08:38:50;;;;;;;3.00;0.93;;;15.20;97.90;;;;;;4947766;28;20054;-80
2023/03/25 08:41:17;;;;;;;1.50;0.40;;;15.50;97.20;;;;;;4960550;28;20055;-80
2023/03/25 08:43:44;;;;;;;4.18;0.47;;;15.30;95.80;;;;;;4932037;28;20046;-80
2023/03/25 08:46:12;;;;;;;1.90;0.40;;;14.90;93.70;;;;;;4958165;28;20047;-80
2023/03/25 08:48:40;;;;;;;1.52;0.50;;;15.30;93.30;;;;;;4961142;28;20052;-80
2023/03/25 08:51:07;;;;;;;2.95;1.10;;;15.20;92.50;;;;;;4951068;28;20450;-81
2023/03/25 08:53:35;;;;;;;1.98;0.50;;;15.40;91.80;;;;;;4932004;28;20094;-80
2023/03/25 08:56:02;;;;;;;1.55;0.57;;;15.60;90.00;;;;;;4953211;28;20055;-78
2023/03/25 08:58:29;;;;;;;4.05;0.70;;;15.60;89.00;;;;;;4952490;28;20089;-79
2023/03/25 09:00:57;;;;;;;4.45;0.73;;;15.60;89.00;;;;;;4950539;28;22148;-80
2023/03/25 09:03:27;;;;;;;1.88;0.30;;;15.70;88.10;;;;;;4947512;28;20059;-80
2023/03/25 09:05:55;;;;;;;0.90;0.30;;;15.80;87.50;;;;;;4947805;28;20443;-78
2023/03/25 09:08:22;;;;;;;2.03;0.70;;;15.90;85.60;;;;;;4948770;28;20047;-79
2023/03/25 09:10:49;;;;;;;3.05;0.60;;;15.70;83.60;;;;;;4959619;28;20035;-81
2023/03/25 09:13:17;;;;;;;1.15;0.30;;;15.80;84.90;;;;;;4933583;28;20055;-80
2023/03/25 09:15:44;;;;;;;3.05;0.38;;;16.00;83.60;;;;;;4942796;28;20042;-80
2023/03/25 09:18:12;;;;;;;3.58;0.80;;;16.10;83.80;;;;;;4945848;28;20054;-80
2023/03/25 09:20:40;;;;;;;1.30;0.20;;;16.30;83.20;;;;;;4947551;28;20078;-81
2023/03/25 09:23:08;;;;;;;0.90;0.40;;;16.60;84.30;;;;;;4952169;28;20078;-81
2023/03/25 09:25:37;;;;;;;2.67;0.52;;;16.50;81.10;;;;;;4934767;28;20622;-80
2023/03/25 09:28:05;;;;;;;1.85;0.28;;;16.40;79.40;;;;;;4954249;28;20039;-80
2023/03/25 09:30:32;;;;;;;2.65;0.43;;;16.30;80.10;;;;;;4926557;28;20060;-82
2023/03/25 09:33:00;;;;;;;4.38;0.73;;;16.50;79.00;;;;;;4932876;28;20078;-80
2023/03/25 09:35:27;;;;;;;1.30;0.22;;;16.20;78.90;;;;;;4949492;28;20141;-81
2023/03/25 09:37:55;;;;;;;2.65;1.00;;;16.60;79.40;;;;;;4949023;28;20077;-80
2023/03/25 09:40:22;;;;;;;4.97;1.52;;;16.30;78.90;;;;;;4950441;28;20055;-81
2023/03/25 09:43:07;;;;;;;1.45;0.40;;;16.50;79.30;;;;;;4948797;28;20105;-80
2023/03/25 09:45:55;;;;;;;5.57;0.50;;;16.90;78.90;;;;;;4933025;28;20128;-81
2023/03/25 09:48:22;;;;;;;1.00;0.52;;;16.30;80.00;;;;;;4925528;28;20071;-80
2023/03/25 09:50:49;;;;;;;0.65;0.28;;;16.50;79.00;;;;;;4927676;29;20048;-80
2023/03/25 09:53:39;;;;;;;2.08;0.45;;;16.80;79.10;;;;;;4925909;29;20078;-80
2023/03/25 09:56:14;;;;;;;2.63;0.40;;;16.70;79.30;;;;;;4938430;28;20036;-80
2023/03/25 09:58:45;;;;;;;1.55;0.30;;;16.50;77.50;;;;;;4926387;28;20058;-80
2023/03/25 10:01:41;;;;;;;1.90;0.35;;;17.00;79.10;;;;;;4925118;29;20056;-79
2023/03/25 10:04:23;;;;;;;2.15;0.20;;;16.40;75.90;;;;;;4927171;28;20055;-79
2023/03/25 10:07:02;;;;;;;2.17;0.50;;;17.40;75.60;;;;;;4926036;28;20149;-80
2023/03/25 10:09:53;;;;;;;1.77;0.50;;;17.30;74.00;;;;;;4925517;29;20054;-81
2023/03/25 10:12:27;;;;;;;1.15;0.30;;;17.60;73.90;;;;;;4936673;28;20069;-79
2023/03/25 10:15:11;;;;;;;4.18;0.60;;;17.70;74.70;;;;;;4937486;28;20055;-79
2023/03/25 10:17:55;;;;;;;2.45;0.55;;;17.90;73.90;;;;;;4928020;28;20059;-80
2023/03/25 10:20:51;;;;;;;0.98;0.40;;;17.80;73.10;;;;;;4956064;28;20055;-80
2023/03/25 10:23:32;;;;;;;5.68;0.40;;;18.30;74.00;;;;;;4928743;28;20181;-80
2023/03/25 10:26:05;;;;;;;1.58;0.35;;;17.60;69.50;;;;;;4959065;28;20054;-80
2023/03/25 10:28:42;;;;;;;1.38;0.30;;;18.00;69.50;;;;;;4929313;28;20046;-81
2023/03/25 10:31:16;;;;;;;1.38;0.30;;;17.90;70.10;;;;;;4941935;28;20227;-79
2023/03/25 10:34:10;;;;;;;2.75;0.50;;;17.70;71.10;;;;;;4941102;28;20046;-79
2023/03/25 10:36:44;;;;;;;4.57;0.50;;;17.20;70.70;;;;;;4934960;28;20042;-79
2023/03/25 10:39:18;;;;;;;3.22;0.50;;;16.90;72.60;;;;;;4925300;28;20050;-80
2023/03/25 10:42:25;;;;;;;1.73;0.60;;;15.90;72.90;;;;;;4932841;28;22750;-79
2023/03/25 10:44:53;;;;;;;1.20;0.55;;;16.40;75.30;;;;;;4944176;28;20094;-80
2023/03/25 10:47:27;;;;;;;2.30;1.73;;;16.30;77.50;;;;;;4947748;28;20057;-79
2023/03/25 10:49:58;;;;;;;3.60;1.40;;;16.10;76.30;;;;;;4924001;28;20598;-80
2023/03/25 10:52:25;;;;;;;4.15;1.90;;;16.40;76.80;;;;;;4960921;28;20047;-80
2023/03/25 10:54:54;;;;;;;4.50;1.00;;;16.30;77.50;;;;;;4941320;28;20469;-78
2023/03/25 10:57:28;;;;;;;2.67;0.90;;;16.70;77.70;;;;;;4960240;28;22828;-81
2023/03/25 11:00:17;;;;;;;2.90;0.77;;;16.80;77.20;;;;;;4939469;28;20060;-80
2023/03/25 11:02:46;;;;;;;1.40;0.70;;;17.30;76.70;;;;;;4958635;28;20071;-81
2023/03/25 11:05:18;;;;;;;1.13;0.60;;;16.90;74.90;;;;;;4950461;28;20051;-80
2023/03/25 11:08:04;;;;;;;1.98;0.68;;;16.80;76.50;;;;;;4947601;28;20073;-79
2023/03/25 11:10:55;;;;;;;2.00;0.70;;;16.50;76.40;;;;;;4937512;28;20069;-81
2023/03/25 11:13:28;;;;;;;2.92;0.65;;;16.40;75.40;;;;;;4947455;28;20054;-79
2023/03/25 11:16:02;;;;;;;1.08;0.30;;;16.20;75.50;;;;;;4950932;28;22790;-80
2023/03/25 11:18:35;;;;;;;0.73;0.22;;;16.20;74.00;;;;;;4944115;28;20107;-80
2023/03/25 11:21:14;;;;;;;2.20;0.50;;;16.30;73.40;;;;;;4932224;28;20043;-79
2023/03/25 11:23:45;;;;;;;1.38;0.40;;;16.60;73.60;;;;;;4948327;28;20977;-78
2023/03/25 11:26:22;;;;;;;2.88;0.40;;;16.50;73.00;;;;;;4935925;28;20055;-81
2023/03/25 11:28:55;;;;;;;1.17;0.20;;;16.50;71.80;;;;;;4949287;28;21485;-78
2023/03/25 11:31:26;;;;;;;4.70;0.40;;;16.40;71.60;;;;;;4958523;28;20939;-79
2023/03/25 11:34:16;;;;;;;2.67;0.47;;;16.50;72.30;;;;;;4956717;28;20536;-79
2023/03/25 11:36:54;;;;;;;1.42;0.30;;;16.60;72.70;;;;;;4944057;28;20213;-80
2023/03/25 11:39:32;;;;;;;3.42;0.60;;;16.50;71.90;;;;;;4933015;28;20038;-79
2023/03/25 11:42:22;;;;;;;3.15;1.05;;;16.50;70.00;;;;;;4935639;28;20114;-80
2023/03/25 11:44:51;;;;;;;6.63;0.70;;;16.30;70.80;;;;;;4948538;28;23168;-80
2023/03/25 11:47:30;;;;;;;3.28;0.40;;;16.30;70.90;;;;;;4966698;28;20054;-79
2023/03/25 11:49:59;;;;;;;4.47;0.85;;;16.20;70.90;;;;;;4949996;28;20736;-80
2023/03/25 11:52:38;;;;;;;5.28;1.80;;;16.20;71.10;;;;;;4933479;28;20057;-81
2023/03/25 11:55:11;;;;;;;1.65;0.55;;;16.30;70.90;;;;;;4951824;28;20058;-80
2023/03/25 11:57:41;;;;;;;7.60;0.30;;;16.40;70.30;;;;;;4957835;28;20051;-80
2023/03/25 12:00:36;;;;;;;2.90;0.20;;;16.50;70.20;;;;;;4944724;28;20051;-78
2023/03/25 12:03:16;;;;;;;5.32;0.38;;;16.60;69.80;;;;;;4963609;28;20034;-79
2023/03/25 12:06:04;;;;;;;2.38;0.20;;;16.60;69.80;;;;;;4934199;28;20063;-80
2023/03/25 12:08:58;;;;;;;2.17;0.30;;;16.60;69.70;;;;;;4932615;28;20055;-79
2023/03/25 12:11:31;;;;;;;1.52;0.30;;;16.60;69.90;;;;;;4928290;29;20511;-79
2023/03/25 12:14:10;;;;;;;3.67;0.30;;;16.30;69.80;;;;;;4951383;28;20055;-78
2023/03/25 12:16:54;;;;;;;3.42;0.40;;;16.10;69.10;;;;;;4946145;28;20072;-78
2023/03/25 12:19:43;;;;;;;3.13;0.68;;;16.10;69.00;;;;;;4942169;28;22777;-78
2023/03/25 12:22:20;;;;;;;3.70;0.30;;;15.90;68.70;;;;;;4957515;28;20047;-77
2023/03/25 12:25:21;;;;;;;3.90;0.80;;;16.00;69.00;;;;;;4945032;28;20138;-79
2023/03/25 12:28:23;;;;;;;0.60;0.20;;;16.00;67.80;;;;;;4943083;28;20048;-80
2023/03/25 12:31:24;;;;;;;2.38;0.40;;;15.90;66.60;;;;;;4947530;28;20083;-79
2023/03/25 12:34:06;;;;;;;0.90;0.20;;;15.90;68.60;;;;;;4932384;29;20105;-79
2023/03/25 12:36:40;;;;;;;2.10;0.20;;;16.00;69.90;;;;;;4928662;29;22731;-78
2023/03/25 12:39:50;;;;;;;1.55;0.20;;;16.10;70.80;;;;;;4928253;28;20058;-80
2023/03/25 12:42:47;;;;;;;1.90;0.30;;;16.10;70.20;;;;;;4947895;28;20522;-80
2023/03/25 12:45:45;;;;;;;1.95;0.20;;;15.60;67.50;;;;;;4936683;28;20482;-81
2023/03/25 12:48:49;;;;;;;2.15;0.30;;;15.70;66.90;;;;;;4936731;28;20723;-81
2023/03/25 12:51:24;;;;;;;2.05;0.30;;;15.60;66.60;;;;;;4930478;28;20047;-80
2023/03/25 12:54:09;;;;;;;1.38;0.20;;;15.70;66.70;;;;;;4929035;29;20058;-79
2023/03/25 12:57:04;;;;;;;0.70;0.20;;;15.90;67.10;;;;;;4947576;28;20075;-79
2023/03/25 12:59:35;;;;;;;2.05;0.20;;;15.90;66.50;;;;;;4957649;28;20114;-79
2023/03/25 13:02:29;;;;;;;4.50;1.75;;;16.00;66.60;;;;;;4941385;28;20058;-79
2023/03/25 13:05:11;;;;;;;3.08;0.50;;;15.90;65.30;;;;;;4959392;28;20048;-80
2023/03/25 13:07:48;;;;;;;2.75;0.20;;;15.90;65.40;;;;;;4954730;28;20091;-80
2023/03/25 13:10:24;;;;;;;1.95;1.40;;;16.00;65.60;;;;;;4942600;28;20055;-79
2023/03/25 13:12:54;;;;;;;1.63;0.20;;;16.00;66.20;;;;;;4939475;28;20063;-79
2023/03/25 13:15:30;;;;;;;2.15;0.40;;;16.00;65.60;;;;;;4943323;29;20173;-79
2023/03/25 13:18:08;;;;;;;2.45;0.50;;;16.00;66.50;;;;;;4925100;29;22684;-79
2023/03/25 13:20:41;;;;;;;0.80;0.30;;;16.20;67.10;;;;;;4953985;28;20059;-79
2023/03/25 13:23:16;;;;;;;1.35;0.30;;;16.20;67.10;;;;;;4941147;28;20058;-81
2023/03/25 13:25:56;;;;;;;5.28;0.77;;;15.90;65.40;;;;;;4942877;29;20051;-79
2023/03/25 13:28:37;;;;;;;1.20;0.30;;;15.90;65.60;;;;;;4945285;28;20075;-78
2023/03/25 13:31:15;;;;;;;0.98;0.40;;;15.90;65.80;;;;;;4930199;28;20065;-79
2023/03/25 13:34:00;;;;;;;1.35;0.20;;;16.00;66.50;;;;;;4947631;28;20039;-79
2023/03/25 13:36:37;;;;;;;2.60;0.77;;;15.90;66.30;;;;;;4955787;28;20059;-80
2023/03/25 13:39:29;;;;;;;2.90;0.35;;;16.00;66.90;;;;;;4931558;29;20142;-81
2023/03/25 13:42:06;;;;;;;3.65;0.32;;;16.10;67.30;;;;;;4945683;28;20051;-79
2023/03/25 13:44:40;;;;;;;2.47;0.20;;;16.10;67.50;;;;;;4945881;28;20050;-78
2023/03/25 13:47:21;;;;;;;1.13;0.30;;;16.00;67.70;;;;;;4928429;29;20165;-81
2023/03/25 13:50:00;;;;;;;0.65;0.10;;;16.10;66.90;;;;;;4941563;29;20106;-80
2023/03/25 13:52:33;;;;;;;1.48;0.10;;;16.10;65.50;;;;;;4938952;29;20075;-80
2023/03/25 13:55:03;;;;;;;;;;;15.50;64.50;;;;;;4930391;28;20069;-80
2023/03/25 13:57:30;;;;;;;0.20;0.03;;;16.10;64.00;;;;;;4950520;28;19930;-78
2023/03/25 14:00:18;;;;;;;0.95;0.10;;;15.90;63.40;;;;;;4929385;29;22634;-79
2023/03/25 14:03:13;;;;;;;2.33;0.20;;;16.10;63.70;;;;;;4928082;29;20047;-80